Station: Gluepot

  Atmospheric Gas Attenuation - ITU Rec 676-11   --------------- db/100km ---------------
Date Time Temp RH % AH g/m3 Dew Point Wind Direction Speed kph Gust kph Barometer mB Rainfall Since 9am 24GHz 47GHz 76GHz 122GHz 134GHz 241GHz
27 09:00 12.5 63 6.93 5.7 2 1013.1 0.4 16.1 23.6 33.8 88.5 78.3 267.9
26 09:00 12 63 6.71 5.3 9 1013.1 0.4 15.6 23.4 33.2 86.8 76.0 259.8
25 09:00 9.4 68 6.15 3.9 11 1013.1 5 14.5 23.2 32.1 83.9 71.4 243.1
24 09:00 12.5 64 7.04 5.9 4 1013.1 1 16.3 23.8 34.3 89.7 79.7 272.7
23 09:00 13.6 61 7.18 6.3 15 1013.1 0 16.6 23.7 34.3 89.8 80.3 275.2
22 09:00 15.5 52 6.87 5.7 15 1013.1 0 15.8 22.7 32.4 84.7 74.6 255.5
21 09:00 1013.1
20 09:00 19.6 65 10.97 12.9 4 1013.1 22 24.3 28.0 46.2 121.6 121.5 420.1
19 09:00 19.5 76 12.75 15.3 2 1013.1 8 28.1 31.0 53.6 141.4 145.9 505.4
18 09:00 19.1 54 8.85 9.7 6 1013.1 0.1 19.9 24.8 38.2 100.2 95.0 327.4
17 09:00 18 48 7.37 6.8 4 1013.1 0 16.8 22.9 33.2 86.9 78.2 268.4
16 09:00 20 34 5.88 3.6 4 1013.1 0 13.6 20.3 27.3 71.2 59.5 202.8
15 09:00 12.4 67 7.32 6.5 2 1013.1 0 16.9 24.2 35.4 92.7 83.4 285.6
14 09:00 13 71 8.05 7.9 2 1013.1 0.6 18.5 25.2 38.0 99.6 92.1 316.5
13 09:00 13.2 82 9.42 10.3 4 1013.1 2 21.4 27.4 43.5 114.2 110.2 379.8
12 09:00 21.9 34 6.56 5.5 6 1013.1 0 14.9 20.8 28.9 75.5 65.5 224.1
11 09:00 20.3 40 7.03 6.4 11 1013.1 0 16.0 21.8 31.1 81.3 72.1 247.2
10 09:00 13.4 55 6.39 4.5 2 1013.1 0 14.9 22.6 31.4 82.1 70.7 241.5
09 09:00 12.5 74 8.14 8 4 1013.1 0.8 18.7 25.5 38.6 101.2 93.9 322.6
08 09:00 18.7 52 8.32 8.7 6 1013.1 0 18.8 24.1 36.4 95.4 89.0 306.1
07 09:00 20.8 27 4.89 1.4 9 1013.1 0 11.5 18.8 23.9 61.9 48.4 163.8
06 09:00 17.4 47 6.96 6 9 1013.1 0 15.9 22.4 32.0 83.6 73.9 253.3
05 09:00 15 66 8.46 8.7 2 1013.1 0 19.2 25.3 38.6 101.4 95.1 327.0
04 09:00 12.7 63 7.01 5.9 2 1013.1 0 16.2 23.7 34.1 89.1 79.1 270.7
03 09:00 16.7 36 5.12 1.7 2 1013.1 0 12.1 20.0 25.8 67.1 53.4 181.0
02 09:00 21.5 25 4.71 0.6 7 1013.1 0 11.1 18.5 23.1 59.9 46.1 155.9
01 09:00 12.8 41 4.59 0 7 1013.1 0 11.1 20.1 25.2 65.5 49.9 168.4
31 09:00 9.9 75 7 5.8 2 1013.1 1 16.3 24.4 35.2 92.2 81.9 280.0
30 09:00 17 33 4.77 0.8 4 1013.1 0 11.4 19.4 24.6 63.8 49.4 166.9
29 09:00 16.6 35 4.94 1.2 6 1013.1 0 11.7 19.8 25.3 65.6 51.5 174.2
28 09:00 12.1 76 8.15 8 4 1013.1 0 18.7 25.6 38.8 101.8 94.5 324.8
27 09:00 15.5 33 4.36 -0.7 4 1013.1 0 10.5 19.2 23.7 61.3 45.8 154.0
26 09:00 11.5 47 4.86 0.7 2 1013.1 0 11.7 20.8 26.6 69.1 53.9 182.1
25 09:00 8 75 6.2 3.8 2 1013.1 0 14.7 23.6 32.9 85.9 73.3 249.7
24 09:00 9.4 78 7.06 5.7 2 1013.1 0 16.5 24.6 35.7 93.5 83.2 284.6
23 09:00 9.5 71 6.46 4.6 4 1013.1 0.2 15.2 23.7 33.3 87.0 75.2 256.8
22 09:00 9.5 66 6.01 3.5 6 1013.1 1 14.2 23.0 31.5 82.3 69.5 236.6
21 09:00 10.6 91 8.88 9.2 4 1013.1 4 20.3 27.3 42.6 111.9 106.4 366.2
19 09:00 12.8 65 7.28 6.5 15 1013.1 0.2 16.8 24.1 35.1 91.8 82.4 282.4
18 09:00 12.5 61 6.71 5.2 6 1013.1 0.6 15.6 23.3 33.0 86.3 75.5 258.2
17 09:00 13.1 54 6.16 4.1 9 1013.1 0 14.4 22.3 30.7 80.2 68.2 232.6
16 09:00 11 81 8.11 7.9 6 1013.1 0.1 18.7 25.9 39.2 102.8 95.4 327.5
15 09:00 12 84 8.95 9.4 4 1013.1 0.1 20.4 27.0 42.2 110.7 105.5 363.0
13 09:00 14.4 64 7.91 7.8 4 1013.1 2 18.1 24.6 36.8 96.4 88.7 304.6
12 09:00 13.1 77 8.79 9.2 4 1013.1 7 20.0 26.4 40.9 107.4 101.8 350.4
11 09:00 12.2 75 8.09 7.9 4 1013.1 0 18.6 25.5 38.5 101.0 93.6 321.6
10 09:00 8.8 96 8.36 8.2 2 1013.1 0.1 19.3 27.0 41.4 108.6 101.6 349.1
09 09:00 9.5 84 7.65 7 2 1013.1 0 17.8 25.6 38.0 99.7 91.0 311.8
08 09:00 7.2 99 7.78 7 2 1013.1 8 18.1 26.5 39.7 104.2 95.5 327.6
07 09:00 6.1 95 6.94 5.4 6 1013.1 3 16.4 25.4 36.7 96.1 85.1 291.0
06 09:00 5.5 63 4.43 -0.9 4 1013.1 0 11.0 21.5 27.0 70.1 52.7 177.2
05 09:00 4 85 5.41 1.7 0 1013.1 0 13.1 23.4 31.3 81.8 66.5 225.3
04 09:00 8.5 75 6.41 4.4 4 1013.1 0 15.1 23.8 33.5 87.6 75.6 257.7
03 09:00 8.8 96 8.36 8.2 4 1013.1 0 19.3 27.0 41.4 108.6 101.6 349.1
02 09:00 13.5 41 4.8 0.5 6 1013.1 0 11.5 20.2 25.7 66.9 51.9 175.3
31 09:00 9 80 7.06 5.7 0 1013.1 0 16.5 24.8 35.9 93.9 83.6 286.0
30 09:00 9.3 96 8.63 8.7 0 1013.1 0.1 19.9 27.3 42.3 111.0 104.7 360.0
29 09:00 7.2 68 5.34 1.8 0 1013.1 0 12.9 22.5 29.8 77.8 62.9 213.3
28 09:00 5.5 89 6.25 3.8 2 1013.1 0.1 14.9 24.4 34.1 89.2 76.4 260.2
27 09:00 11 87 8.71 9 2 1013.1 0 20.0 26.9 41.7 109.5 103.5 356.1
26 09:00 7.1 91 7.1 5.8 0 1013.1 0 16.7 25.4 36.9 96.7 86.2 295.0
24 09:00 6.4 32 2.39 -9.2 0 1013.1 0 6.6 18.4 19.5 49.9 28.2 90.8
22 09:00 7.3 83 6.56 4.6 0 1013.1 0 15.5 24.4 34.6 90.5 78.7 268.7
21 09:00 6.8 86 6.58 4.7 0 1013.1 0 15.6 24.6 34.9 91.3 79.5 271.3
20 09:00 9.5 80 7.28 6.3 0 1013.1 0 17.0 25.0 36.5 95.7 86.0 294.4
19 09:00 11 74 7.41 6.6 0 1013.1 0 17.2 24.8 36.4 95.3 86.0 294.8
18 09:00 11.5 50 5.17 1.6 2 1013.1 0 12.4 21.2 27.7 72.1 57.6 195.0
17 09:00 7.6 67 5.4 2 0 1013.1 0 13.0 22.5 29.9 78.0 63.4 214.9
16 09:00 7.5 80 6.41 4.3 0 1013.1 0 15.2 24.1 33.9 88.7 76.5 261.0
14 09:00 4.4 100 6.53 4.4 0 1013.1 0 15.6 25.2 35.8 93.6 81.3 277.4
13 09:00 7.1 100 7.8 7.1 2 1013.1 0.2 18.2 26.5 39.9 104.6 95.9 329.0
12 09:00 8.5 100 8.54 8.5 0 1013.1 2 19.7 27.4 42.3 111.1 104.6 359.3
11 09:00 9.5 95 8.65 8.7 0 1013.1 5 19.9 27.3 42.2 110.9 104.7 360.1
10 09:00 6.4 79 5.89 3.1 0 1013.1 0 14.1 23.6 32.3 84.3 70.7 240.5
09 09:00 3.1 100 5.99 3.1 0 1013.1 0 14.4 24.6 34.1 89.1 75.2 255.7
08 09:00 7.5 81 6.49 4.5 0 1013.1 0 15.3 24.2 34.2 89.5 77.6 264.7
07 09:00 11.1 99 9.97 10.9 0 1013.1 0 22.7 29.0 47.0 123.7 121.2 417.7
06 09:00 9.5 70 6.37 4.3 2 1013.1 0 15.0 23.5 32.9 86.1 74.1 252.7
05 09:00 11.2 80 8.11 7.9 0 1013.1 0.4 18.7 25.8 39.1 102.6 95.1 326.6
04 09:00 8.5 86 7.35 6.3 0 1013.1 1 17.2 25.4 37.3 97.7 88.1 301.5
03 09:00 10 75 7.05 5.9 7 1013.1 0 16.4 24.5 35.4 92.6 82.4 282.0
02 09:00 11 73 7.31 6.3 4 1013.1 0 17.0 24.6 36.0 94.2 84.7 290.3
01 09:00 13.4 34 3.95 -2.2 6 1013.1 0 9.7 19.1 22.9 59.2 42.4 142.0
30 09:00 7.9 60 4.93 0.7 4 1013.1 0.1 12.0 21.7 28.0 73.0 57.3 193.5
29 09:00 2.5 91 5.24 1.2 0 1013.1 0 12.8 23.5 31.2 81.5 65.5 221.6
28 09:00 5.3 76 5.27 1.5 0 1013.1 0 12.8 22.9 30.3 78.9 63.6 215.2
27 09:00 6.8 94 7.19 5.9 0 1013.1 0.1 16.9 25.6 37.4 98.1 87.8 300.5
26 09:00 5.4 100 6.98 5.4 0 1013.1 0.1 16.5 25.6 37.2 97.5 86.5 295.6
25 09:00 9 71 6.26 4 0 1013.1 0 14.8 23.5 32.7 85.4 73.1 249.3
24 09:00 9.2 88 7.86 7.3 0 1013.1 0.1 18.2 26.0 39.1 102.4 94.2 323.1
23 09:00 11 81 8.11 7.9 2 1013.1 0.2 18.7 25.9 39.2 102.8 95.4 327.5
22 09:00 11.1 87 8.76 9.1 2 1013.1 2 20.1 27.0 41.8 109.9 104.1 358.0
21 09:00 12.5 77 8.47 8.7 4 1013.1 1 19.4 26.1 39.9 104.8 98.3 338.0
20 09:00 11 77 7.71 7.2 0 1013.1 0 17.8 25.2 37.6 98.5 90.0 308.7
19 09:00 10.4 63 6.07 3.8 2 1013.1 0 14.3 22.8 31.4 82.0 69.4 236.6
18 09:00 9.5 80 7.28 6.3 2 1013.1 0.1 17.0 25.0 36.5 95.7 86.0 294.4
17 09:00 9.5 99 9.01 9.3 0 1013.1 0 20.7 27.9 43.8 115.0 109.8 377.9
16 09:00 12.3 73 7.93 7.6 0 1013.1 0 18.2 25.2 37.8 99.2 91.4 313.8
15 09:00 14.8 61 7.73 7.3 6 1013.1 0 17.7 24.2 35.9 94.1 86.0 295.1
14 09:00 9.5 85 7.74 7.2 0 1013.1 8 17.9 25.7 38.4 100.7 92.2 316.1

Last Refresh: 27-Sep-2020 14:11:38

Most of the information presented on this site is sourced from the Bureau of Meteorology.  Copyright in all material sourced from the Bureau of Meteorology resides with the Commonwealth of Australia.